Time;durP1;ratioP1;P1;durP2;ratioP2;P2;SDS_P1;SDS_P2;PMS_P1;PMS_P2;Temp;Humidity;BMP_temperature;BMP_pressure;BME280_temperature;BME280_humidity;BME280_pressure;Samples;Min_cycle;Max_cycle;Signal;HPM_P1;HPM_P2
2022/04/05 00:01:17;;;;;;;6.80;6.10;;;;;;;2.85;100.00;98057.50;5025331;28;20064;-48
2022/04/05 00:04:02;;;;;;;5.97;5.38;;;;;;;2.89;100.00;98064.31;5025560;28;20139;-48
2022/04/05 00:06:46;;;;;;;8.10;5.82;;;;;;;2.95;100.00;98056.41;5025715;28;20049;-48
2022/04/05 00:09:31;;;;;;;6.10;5.45;;;;;;;2.91;100.00;98049.63;5025527;28;20238;-48
2022/04/05 00:12:15;;;;;;;6.65;5.63;;;;;;;2.88;100.00;98041.94;5026764;28;20049;-49
2022/04/05 00:15:00;;;;;;;5.20;4.68;;;;;;;2.90;100.00;98041.91;5025167;28;20132;-48
2022/04/05 00:17:44;;;;;;;6.40;5.30;;;;;;;2.88;100.00;98041.94;5025690;28;20042;-48
2022/04/05 00:20:29;;;;;;;5.15;4.65;;;;;;;2.88;100.00;98034.16;5024932;28;20506;-49
2022/04/05 00:23:15;;;;;;;9.57;4.93;;;;;;;2.92;100.00;98032.34;5025247;28;20472;-48
2022/04/05 00:25:59;;;;;;;7.40;5.00;;;;;;;2.97;100.00;98025.38;5025409;28;20128;-48
2022/04/05 00:28:44;;;;;;;5.35;4.85;;;;;;;2.87;100.00;98026.47;5025548;28;20049;-48
2022/04/05 00:31:29;;;;;;;4.47;4.07;;;;;;;2.83;100.00;98030.84;5025190;28;20081;-48
2022/04/05 00:34:13;;;;;;;4.47;4.07;;;;;;;2.89;100.00;98027.25;5024765;28;20049;-48
2022/04/05 00:36:57;;;;;;;5.22;4.72;;;;;;;2.91;100.00;98033.25;5025537;28;20038;-48
2022/04/05 00:39:42;;;;;;;5.97;4.78;;;;;;;2.93;100.00;98018.56;5028771;28;20671;-49
2022/04/05 00:42:26;;;;;;;5.75;5.15;;;;;;;2.84;100.00;98027.38;5028337;28;20045;-48
2022/04/05 00:45:10;;;;;;;4.78;4.32;;;;;;;2.83;100.00;98017.91;5029037;28;20049;-48
2022/04/05 00:47:55;;;;;;;6.00;5.40;;;;;;;2.89;100.00;98020.34;5029076;28;20053;-49
2022/04/05 00:50:39;;;;;;;5.05;4.55;;;;;;;2.93;100.00;98014.25;5028730;28;20045;-49
2022/04/05 00:53:25;;;;;;;5.00;4.50;;;;;;;2.91;100.00;97999.63;5029076;28;20049;-49
2022/04/05 00:56:11;;;;;;;4.90;4.32;;;;;;;2.95;100.00;97996.09;5028498;28;20053;-49
2022/04/05 00:59:00;;;;;;;5.53;5.00;;;;;;;3.02;100.00;97990.75;5028425;28;20053;-49
2022/04/05 01:01:46;;;;;;;6.05;5.18;;;;;;;2.96;100.00;98002.97;5028553;28;20049;-49
2022/04/05 01:04:33;;;;;;;5.22;4.72;;;;;;;3.02;100.00;98005.41;5027538;28;20033;-49
2022/04/05 01:07:19;;;;;;;5.22;4.72;;;;;;;3.00;100.00;98004.59;5028148;28;20050;-49
2022/04/05 01:10:06;;;;;;;5.65;4.78;;;;;;;3.06;100.00;97990.69;5028249;28;20144;-49
2022/04/05 01:12:51;;;;;;;5.13;4.63;;;;;;;3.06;100.00;98003.63;5029400;28;20101;-49
2022/04/05 01:15:35;;;;;;;5.20;4.70;;;;;;;3.07;100.00;97997.53;5028499;28;20049;-50
2022/04/05 01:18:20;;;;;;;5.65;4.43;;;;;;;3.13;100.00;97995.66;5027369;28;20063;-49
2022/04/05 01:21:05;;;;;;;5.18;4.68;;;;;;;3.13;100.00;97981.88;5026669;28;20053;-49
2022/04/05 01:24:08;;;;;;;6.25;5.00;;;;;;;3.18;100.00;97987.78;5025941;28;20384;-49
2022/04/05 01:26:56;;;;;;;5.50;4.93;;;;;;;3.21;100.00;97990.28;5027879;28;20041;-49
2022/04/05 01:29:42;;;;;;;4.97;4.47;;;;;;;3.21;100.00;97987.72;5027974;28;20057;-49
2022/04/05 01:32:27;;;;;;;4.93;4.43;;;;;;;3.25;100.00;97987.63;5028406;28;20045;-49
2022/04/05 01:35:14;;;;;;;4.28;3.88;;;;;;;3.34;100.00;97990.84;5028147;28;20038;-49
2022/04/05 01:37:58;;;;;;;4.85;4.40;;;;;;;3.33;100.00;97986.56;5028095;28;20391;-49
2022/04/05 01:40:43;;;;;;;7.57;5.13;;;;;;;3.33;100.00;97971.88;5027590;28;20053;-49
2022/04/05 01:43:27;;;;;;;5.38;4.88;;;;;;;3.41;100.00;97982.03;5029241;28;20510;-49
2022/04/05 01:46:11;;;;;;;4.60;4.13;;;;;;;3.45;100.00;97983.69;5027528;28;20045;-49
2022/04/05 01:48:55;;;;;;;5.03;4.53;;;;;;;3.46;100.00;97988.81;5027405;28;20602;-49
2022/04/05 01:51:42;;;;;;;5.97;5.15;;;;;;;3.48;100.00;97987.03;5027256;28;20472;-49
2022/04/05 01:54:26;;;;;;;4.72;4.32;;;;;;;3.48;100.00;97981.00;5027696;28;20045;-49
2022/04/05 01:57:11;;;;;;;5.13;4.57;;;;;;;3.57;100.00;97973.00;5027593;28;20045;-49
2022/04/05 01:59:56;;;;;;;4.75;4.25;;;;;;;3.58;100.00;97979.03;5027809;28;20037;-50
2022/04/05 02:02:43;;;;;;;5.50;4.97;;;;;;;3.60;100.00;97974.66;5027956;28;20045;-49
2022/04/05 02:05:28;;;;;;;5.30;4.80;;;;;;;3.63;100.00;97962.47;5027510;28;20064;-50
2022/04/05 02:08:13;;;;;;;4.75;4.32;;;;;;;3.63;100.00;97959.03;5028350;28;20117;-50
2022/04/05 02:10:58;;;;;;;5.15;4.65;;;;;;;3.62;100.00;97967.72;5027391;28;20049;-50
2022/04/05 02:13:44;;;;;;;5.63;4.82;;;;;;;3.66;100.00;97962.41;5027030;28;20388;-50
2022/04/05 02:16:29;;;;;;;7.20;5.68;;;;;;;3.82;100.00;97964.59;5025852;28;20050;-50
2022/04/05 02:19:15;;;;;;;6.38;4.97;;;;;;;3.77;100.00;97956.94;5026170;28;20053;-50
2022/04/05 02:22:02;;;;;;;6.85;5.78;;;;;;;3.83;100.00;97966.28;5025667;28;20045;-50
2022/04/05 02:24:48;;;;;;;6.13;5.22;;;;;;;3.84;100.00;97968.00;5026107;28;20045;-50
2022/04/05 02:27:33;;;;;;;7.22;4.93;;;;;;;3.83;100.00;97956.75;5025138;28;20045;-50
2022/04/05 02:30:19;;;;;;;5.45;4.93;;;;;;;3.92;100.00;97953.06;5026999;28;20457;-50
2022/04/05 02:33:06;;;;;;;6.95;4.95;;;;;;;3.90;100.00;97953.13;5025611;28;20476;-50
2022/04/05 02:35:52;;;;;;;6.13;5.53;;;;;;;3.94;100.00;97946.97;5025247;28;20049;-50
2022/04/05 02:38:37;;;;;;;5.95;5.35;;;;;;;3.99;100.00;97941.63;5026581;28;20037;-50
2022/04/05 02:41:26;;;;;;;6.75;5.55;;;;;;;4.02;100.00;97941.56;5025831;28;20057;-50
2022/04/05 02:44:11;;;;;;;5.95;5.00;;;;;;;3.96;100.00;97950.38;5025878;28;20496;-50
2022/04/05 02:46:57;;;;;;;5.63;4.95;;;;;;;4.06;100.00;97939.72;5025426;28;20053;-50
2022/04/05 02:49:43;;;;;;;6.50;5.57;;;;;;;4.16;100.00;97947.22;5025438;28;20793;-49
2022/04/05 02:52:36;;;;;;;5.38;4.88;;;;;;;4.16;100.00;97947.22;5025366;28;20053;-50
2022/04/05 02:55:23;;;;;;;5.95;4.45;;;;;;;4.11;100.00;97950.81;5026953;28;20041;-49
2022/04/05 02:58:08;;;;;;;6.65;5.15;;;;;;;4.18;100.00;97948.00;5025705;28;20330;-50
2022/04/05 03:00:54;;;;;;;5.82;5.10;;;;;;;4.09;100.00;97950.84;5024460;28;20053;-50
2022/04/05 03:03:39;;;;;;;5.63;5.13;;;;;;;4.16;100.00;97955.00;5024713;28;20107;-50
2022/04/05 03:06:24;;;;;;;6.75;4.80;;;;;;;4.20;100.00;97953.16;5024855;28;20594;-50
2022/04/05 03:09:10;;;;;;;5.55;4.78;;;;;;;4.29;100.00;97952.03;5025194;28;20053;-50
2022/04/05 03:11:56;;;;;;;5.55;4.82;;;;;;;4.31;100.00;97943.31;5025562;28;20136;-50
2022/04/05 03:14:42;;;;;;;6.85;5.70;;;;;;;4.29;100.00;97952.91;5025292;28;20045;-50
2022/04/05 03:17:28;;;;;;;6.97;5.72;;;;;;;4.27;100.00;97951.22;5024805;28;20531;-50
2022/04/05 03:20:14;;;;;;;5.13;4.63;;;;;;;4.37;100.00;97955.25;5025202;28;20053;-50
2022/04/05 03:23:05;;;;;;;6.60;5.38;;;;;;;4.39;100.00;97950.88;5024304;28;20041;-49
2022/04/05 03:25:49;;;;;;;6.00;5.43;;;;;;;4.42;100.00;97953.38;5025898;28;20053;-50
2022/04/05 03:28:36;;;;;;;8.13;6.25;;;;;;;4.39;100.00;97951.72;5026082;28;20140;-50
2022/04/05 03:31:21;;;;;;;7.85;5.85;;;;;;;4.36;100.00;97957.00;5025167;28;20053;-50
2022/04/05 03:34:08;;;;;;;9.65;6.68;;;;;;;4.47;100.00;97966.19;5026353;28;21791;-50
2022/04/05 03:36:54;;;;;;;12.20;7.95;;;;;;;4.40;100.00;97963.78;5025998;28;20052;-50
2022/04/05 03:39:39;;;;;;;12.77;7.88;;;;;;;4.34;100.00;97956.19;5026533;28;20045;-50
2022/04/05 03:42:24;;;;;;;10.80;8.23;;;;;;;4.44;100.00;97960.19;5026342;28;20050;-50
2022/04/05 03:45:09;;;;;;;10.70;6.95;;;;;;;4.48;100.00;97962.69;5027135;28;20045;-50
2022/04/05 03:47:55;;;;;;;9.38;6.68;;;;;;;4.42;100.00;97951.63;5025491;28;20747;-50
2022/04/05 03:50:40;;;;;;;11.85;6.97;;;;;;;4.56;100.00;97953.81;5027315;28;20045;-50
2022/04/05 03:53:24;;;;;;;12.75;8.40;;;;;;;4.49;100.00;97960.09;5027876;28;20403;-50
2022/04/05 03:56:09;;;;;;;11.38;7.55;;;;;;;4.53;100.00;97963.44;5026172;28;20041;-50
2022/04/05 03:58:54;;;;;;;7.07;5.93;;;;;;;4.53;100.00;97959.09;5024977;28;20041;-50
2022/04/05 04:01:38;;;;;;;6.50;5.18;;;;;;;4.48;100.00;97957.50;5025352;28;20381;-50
2022/04/05 04:04:23;;;;;;;8.18;6.65;;;;;;;4.59;100.00;97955.47;5026182;28;20046;-50
2022/04/05 04:07:08;;;;;;;6.22;5.63;;;;;;;4.58;100.00;97957.22;5025657;28;20050;-50
2022/04/05 04:09:53;;;;;;;7.28;6.35;;;;;;;4.55;100.00;97946.94;5026768;28;20038;-50
2022/04/05 04:12:38;;;;;;;7.97;6.30;;;;;;;4.59;100.00;97950.28;5026211;28;20144;-50
2022/04/05 04:15:22;;;;;;;6.38;5.63;;;;;;;4.58;100.00;97957.22;5030331;28;20436;-50
2022/04/05 04:18:09;;;;;;;5.15;4.65;;;;;;;4.56;100.00;97951.22;5029588;28;20057;-50
2022/04/05 04:20:56;;;;;;;5.90;4.88;;;;;;;4.59;100.00;97961.50;5029387;28;20053;-50
2022/04/05 04:23:42;;;;;;;5.18;4.57;;;;;;;4.49;100.00;97957.50;5029483;28;20046;-49
2022/04/05 04:26:28;;;;;;;5.97;5.32;;;;;;;4.54;100.00;97968.56;5029623;28;20045;-49
2022/04/05 04:29:12;;;;;;;6.78;5.28;;;;;;;4.52;100.00;97957.41;5030706;28;20163;-49
2022/04/05 04:31:57;;;;;;;6.55;5.75;;;;;;;4.43;100.00;97960.25;5030159;28;20049;-49
2022/04/05 04:34:41;;;;;;;6.25;5.57;;;;;;;4.45;100.00;97961.91;5030493;28;20076;-49
2022/04/05 04:37:25;;;;;;;6.18;5.32;;;;;;;4.52;100.00;97969.50;5027000;28;20049;-49
2022/04/05 04:40:11;;;;;;;6.32;5.47;;;;;;;4.48;100.00;97957.50;5028128;28;20082;-49
2022/04/05 04:42:55;;;;;;;8.05;5.70;;;;;;;4.38;100.00;97970.75;5027249;28;20041;-49
2022/04/05 04:45:40;;;;;;;6.78;5.75;;;;;;;4.44;100.00;97965.38;5025400;28;20045;-49
2022/04/05 04:48:24;;;;;;;6.60;5.28;;;;;;;4.44;100.00;97965.38;5027380;28;20049;-50
2022/04/05 04:51:08;;;;;;;6.63;5.30;;;;;;;4.43;100.00;97971.47;5027302;28;20140;-49
2022/04/05 04:53:53;;;;;;;8.63;6.10;;;;;;;4.49;100.00;97965.25;5027648;28;20057;-47
2022/04/05 04:56:37;;;;;;;7.82;5.80;;;;;;;4.51;100.00;97970.38;5027381;28;20380;-47
2022/04/05 04:59:21;;;;;;;6.03;4.88;;;;;;;4.50;100.00;97972.13;5027416;28;20057;-48
2022/04/05 05:02:05;;;;;;;6.55;5.18;;;;;;;4.45;100.00;97969.69;5027566;28;20416;-48
2022/04/05 05:04:50;;;;;;;8.45;6.10;;;;;;;4.42;100.00;97968.94;5026764;28;20054;-47
2022/04/05 05:07:35;;;;;;;6.82;5.70;;;;;;;4.41;100.00;97977.59;5026163;28;20045;-47
2022/04/05 05:10:21;;;;;;;7.45;5.93;;;;;;;4.43;100.00;97981.84;5027441;28;20053;-48
2022/04/05 05:13:05;;;;;;;7.72;6.70;;;;;;;4.50;100.00;97979.91;5027851;28;20053;-48
2022/04/05 05:15:50;;;;;;;9.25;6.82;;;;;;;4.54;100.00;97981.53;5027524;28;20053;-48
2022/04/05 05:18:34;;;;;;;7.15;5.78;;;;;;;4.52;100.00;97982.44;5026820;28;20053;-48
2022/04/05 05:21:19;;;;;;;7.72;6.47;;;;;;;4.49;100.00;97985.16;5026796;28;20053;-48
2022/04/05 05:24:04;;;;;;;7.07;5.97;;;;;;;4.47;100.00;97992.13;5026007;28;20046;-47
2022/04/05 05:26:49;;;;;;;7.38;6.20;;;;;;;4.55;100.00;97995.31;5026570;28;20041;-48
2022/04/05 05:29:33;;;;;;;6.15;5.25;;;;;;;4.45;100.00;98002.53;5026867;28;20049;-48
2022/04/05 05:32:17;;;;;;;8.43;6.03;;;;;;;4.65;100.00;98007.16;5025401;28;20049;-48
2022/04/05 05:35:02;;;;;;;8.80;6.30;;;;;;;4.53;100.00;98005.75;5025885;28;20049;-48
2022/04/05 05:37:47;;;;;;;9.70;6.57;;;;;;;4.54;100.00;98015.22;5025369;28;20077;-48
2022/04/05 05:40:32;;;;;;;6.28;5.05;;;;;;;4.56;100.00;98013.44;5027863;28;20076;-48
2022/04/05 05:43:16;;;;;;;9.90;6.95;;;;;;;4.55;100.00;98016.06;5029481;28;20057;-48
2022/04/05 05:46:03;;;;;;;11.48;7.97;;;;;;;4.55;100.00;98024.72;5028701;28;20125;-48
2022/04/05 05:48:47;;;;;;;13.27;9.73;;;;;;;4.73;100.00;98027.66;5026533;28;20049;-48
2022/04/05 05:51:32;;;;;;;12.75;9.38;;;;;;;4.60;100.00;98024.56;5028199;28;20691;-48
2022/04/05 05:54:17;;;;;;;11.80;9.30;;;;;;;4.58;100.00;98026.34;5027121;28;20072;-48
2022/04/05 05:57:02;;;;;;;15.40;10.82;;;;;;;4.61;100.00;98036.63;5026277;28;20037;-48
2022/04/05 05:59:46;;;;;;;15.27;12.20;;;;;;;4.62;100.00;98038.34;5026856;28;20049;-48
2022/04/05 06:02:30;;;;;;;18.02;11.10;;;;;;;4.63;100.00;98040.06;5028889;28;20053;-48
2022/04/05 06:05:15;;;;;;;29.50;16.92;;;;;;;4.69;100.00;98038.13;5029054;28;20617;-48
2022/04/05 06:08:00;;;;;;;23.75;15.23;;;;;;;4.67;100.00;98034.72;5028718;28;20076;-48
2022/04/05 06:10:44;;;;;;;24.10;15.82;;;;;;;4.68;100.00;98044.22;5030142;28;20042;-48
2022/04/05 06:13:28;;;;;;;11.48;9.95;;;;;;;4.73;100.00;98040.63;5029785;28;20968;-48
2022/04/05 06:16:14;;;;;;;11.15;8.00;;;;;;;4.78;100.00;98043.94;5029599;28;20049;-49
2022/04/05 06:18:59;;;;;;;36.90;19.52;;;;;;;4.72;100.00;98046.72;5030202;28;20049;-48
2022/04/05 06:21:43;;;;;;;20.83;13.32;;;;;;;4.83;100.00;98049.84;5029877;28;20412;-48
2022/04/05 06:24:28;;;;;;;23.92;14.95;;;;;;;4.81;100.00;98060.28;5029801;28;20442;-48
2022/04/05 06:27:13;;;;;;;20.67;13.73;;;;;;;4.88;100.00;98055.75;5029608;28;20136;-48
2022/04/05 06:29:57;;;;;;;13.65;9.27;;;;;;;4.85;100.00;98064.47;5029881;28;20049;-48
2022/04/05 06:32:42;;;;;;;9.90;7.47;;;;;;;4.97;100.00;98062.38;5026293;28;20041;-48
2022/04/05 06:35:26;;;;;;;10.02;6.97;;;;;;;4.91;100.00;98069.47;5026153;28;20057;-48
2022/04/05 06:38:11;;;;;;;13.00;9.25;;;;;;;4.87;100.00;98062.66;5026258;28;20050;-48
2022/04/05 06:40:56;;;;;;;10.30;6.97;;;;;;;4.94;100.00;98068.53;5026307;28;20381;-48
2022/04/05 06:43:41;;;;;;;7.97;6.63;;;;;;;4.99;100.00;98069.22;5018767;28;20104;-49
2022/04/05 06:46:25;;;;;;;6.35;4.90;;;;;;;5.02;100.00;98076.94;5019524;28;20049;-49
2022/04/05 06:49:10;;;;;;;6.85;5.95;;;;;;;5.04;100.00;98076.91;5024497;28;20057;-49
2022/04/05 06:51:54;;;;;;;5.50;4.90;;;;;;;4.93;100.00;98078.03;5025772;28;20033;-49
2022/04/05 06:54:39;;;;;;;7.05;6.25;;;;;;;4.95;100.00;98085.81;5025345;28;20522;-48
2022/04/05 06:57:23;;;;;;;6.57;5.95;;;;;;;5.09;100.00;98086.22;5025799;28;20038;-49
2022/04/05 07:00:11;;;;;;;6.03;5.38;;;;;;;5.13;100.00;98090.44;5028204;28;20045;-49
2022/04/05 07:02:56;;;;;;;6.00;5.40;;;;;;;5.12;100.00;98087.88;5027153;28;20037;-48
2022/04/05 07:05:41;;;;;;;6.80;5.28;;;;;;;5.15;100.00;98096.41;5026677;28;20033;-49
2022/04/05 07:08:25;;;;;;;5.63;5.13;;;;;;;5.16;100.00;98092.06;5028740;28;20286;-49
2022/04/05 07:11:09;;;;;;;5.40;4.88;;;;;;;5.27;100.00;98100.41;5027989;28;20045;-49
2022/04/05 07:13:54;;;;;;;6.13;5.53;;;;;;;5.32;100.00;98100.25;5028296;28;20488;-49
2022/04/05 07:16:38;;;;;;;8.85;7.32;;;;;;;5.32;100.00;98102.84;5026783;28;20038;-49
2022/04/05 07:19:22;;;;;;;8.23;5.78;;;;;;;5.36;100.00;98109.63;5028295;28;20033;-49
2022/04/05 07:22:07;;;;;;;7.93;6.88;;;;;;;5.35;100.00;98110.53;5029876;28;20187;-49
2022/04/05 07:24:51;;;;;;;9.77;8.07;;;;;;;5.36;100.00;98104.44;5028990;28;20149;-49
2022/04/05 07:27:35;;;;;;;10.15;7.53;;;;;;;5.54;100.00;98103.88;5028422;28;20061;-49
2022/04/05 07:30:20;;;;;;;7.10;5.88;;;;;;;5.63;100.00;98107.94;5028255;28;20057;-49
2022/04/05 07:33:05;;;;;;;6.38;5.78;;;;;;;5.60;100.00;98114.06;5028858;28;20053;-49
2022/04/05 07:35:49;;;;;;;5.43;4.93;;;;;;;5.54;100.00;98114.25;5028777;28;20479;-49
2022/04/05 07:38:34;;;;;;;6.88;4.93;;;;;;;5.56;100.00;98120.28;5027821;28;20559;-49
2022/04/05 07:41:19;;;;;;;5.82;4.72;;;;;;;5.57;100.00;98113.31;5028834;28;20056;-49
2022/04/05 07:44:05;;;;;;;5.72;5.13;;;;;;;5.70;100.00;98117.22;5029580;28;20160;-49
2022/04/05 07:46:49;;;;;;;8.50;4.88;;;;;;;5.81;100.00;98122.91;5027551;28;20045;-49
2022/04/05 07:49:33;;;;;;;6.13;5.45;;;;;;;5.82;100.00;98131.59;5027620;28;20061;-49
2022/04/05 07:52:18;;;;;;;8.20;5.95;;;;;;;5.95;100.00;98135.50;5028960;28;20045;-49
2022/04/05 07:55:04;;;;;;;8.38;5.30;;;;;;;6.16;100.00;98138.28;5028566;28;20505;-49
2022/04/05 07:57:49;;;;;;;6.38;4.43;;;;;;;6.13;100.00;98148.78;5027447;28;20073;-49
2022/04/05 08:00:33;;;;;;;4.45;4.05;;;;;;;6.20;100.00;98142.47;5027269;28;20049;-49
2022/04/05 08:03:18;;;;;;;4.72;4.28;;;;;;;6.22;100.00;98149.31;5025606;28;20049;-49
2022/04/05 08:06:03;;;;;;;4.78;3.63;;;;;;;6.44;100.00;98146.84;5029579;28;20523;-49
2022/04/05 08:08:47;;;;;;;4.03;3.40;;;;;;;6.42;100.00;98142.59;5028385;28;20126;-49
2022/04/05 08:11:34;;;;;;;3.80;3.38;;;;;;;6.64;100.00;98153.13;5028974;28;20401;-49
2022/04/05 08:14:18;;;;;;;5.82;3.10;;;;;;;6.82;100.00;98156.78;5028290;28;20455;-49
2022/04/05 08:17:03;;;;;;;4.80;3.22;;;;;;;6.94;100.00;98154.59;5026448;28;20050;-49
2022/04/05 08:19:47;;;;;;;2.53;2.20;;;;;;;7.12;100.00;98162.66;5026561;28;20053;-49
2022/04/05 08:22:32;;;;;;;3.47;2.50;;;;;;;7.21;100.00;98154.47;5025886;28;20046;-49
2022/04/05 08:25:18;;;;;;;4.13;2.65;;;;;;;7.28;100.00;98157.69;5027345;28;20517;-49
2022/04/05 08:28:03;;;;;;;5.38;3.22;;;;;;;7.45;100.00;98163.97;5026530;28;20481;-49
2022/04/05 08:30:47;;;;;;;3.80;2.85;;;;;;;7.66;100.00;98167.50;5027551;28;20034;-49
2022/04/05 08:33:34;;;;;;;2.17;1.35;;;;;;;7.52;100.00;98167.19;5026795;28;20057;-49
2022/04/05 08:36:18;;;;;;;3.35;2.03;;;;;;;7.28;100.00;98160.31;5025786;28;20053;-50
2022/04/05 08:39:03;;;;;;;2.92;1.75;;;;;;;7.55;100.00;98168.84;5026642;28;20058;-49
2022/04/05 08:41:48;;;;;;;5.47;2.88;;;;;;;7.59;100.00;98168.66;5026813;28;20033;-49
2022/04/05 08:44:33;;;;;;;2.40;1.50;;;;;;;7.62;100.00;98178.13;5027926;28;20490;-49
2022/04/05 08:47:23;;;;;;;1.75;1.17;;;;;;;7.78;100.00;98178.38;5027239;28;20053;-49
2022/04/05 08:50:09;;;;;;;2.47;1.40;;;;;;;7.91;100.00;98184.78;5027657;28;20407;-49
2022/04/05 08:52:57;;;;;;;3.03;1.63;;;;;;;7.91;100.00;98176.97;5027982;28;20053;-49
2022/04/05 08:55:41;;;;;;;2.00;1.40;;;;;;;8.10;100.00;98190.13;5026884;28;20481;-50
2022/04/05 08:58:25;;;;;;;3.47;1.23;;;;;;;8.14;100.00;98191.69;5026271;28;20061;-49
2022/04/05 09:01:10;;;;;;;3.20;2.00;;;;;;;8.12;100.00;98201.31;5026198;28;20057;-49
2022/04/05 09:03:54;;;;;;;1.92;1.10;;;;;;;8.05;100.00;98200.72;5026963;28;20053;-49
2022/04/05 09:06:38;;;;;;;2.47;1.95;;;;;;;8.11;100.00;98207.44;5027409;28;20053;-52
2022/04/05 09:09:28;;;;;;;5.43;1.73;;;;;;;8.16;100.00;98198.53;5028439;28;20058;-49
2022/04/05 09:12:17;;;;;;;3.47;1.23;;;;;;;8.04;100.00;98206.84;5027270;28;20739;-49
2022/04/05 09:15:08;;;;;;;2.95;1.80;;;;;;;8.08;100.00;98210.19;5028414;28;20068;-49
2022/04/05 09:17:53;;;;;;;4.60;1.73;;;;;;;8.12;100.00;98214.34;5027442;28;20415;-50
2022/04/05 09:20:46;;;;;;;1.73;1.13;;;;;;;8.06;100.00;98206.78;5027591;28;20076;-49
2022/04/05 09:23:33;;;;;;;1.88;1.00;;;;;;;8.30;100.00;98223.19;5025360;28;20074;-49
2022/04/05 09:26:19;;;;;;;2.88;1.45;;;;;;;8.24;100.00;98223.44;5025283;28;20500;-49
2022/04/05 09:29:07;;;;;;;3.03;1.00;;;;;;;8.43;100.00;98219.22;5027592;28;20061;-49
2022/04/05 09:31:52;;;;;;;4.32;1.75;;;;;;;8.25;100.00;98215.53;5027258;28;20076;-49
2022/04/05 09:34:48;;;;;;;5.93;1.92;;;;;;;8.47;100.00;98223.38;5025752;28;20061;-49
2022/04/05 09:37:38;;;;;;;5.20;3.00;;;;;;;8.62;100.00;98225.34;5027804;28;20042;-50
2022/04/05 09:40:32;;;;;;;5.72;2.88;;;;;;;8.55;100.00;98225.69;5029669;28;20456;-49
2022/04/05 09:43:16;;;;;;;2.17;1.08;;;;;;;8.44;100.00;98223.50;5029208;28;20053;-49
2022/04/05 09:46:01;;;;;;;2.22;0.73;;;;;;;8.53;100.00;98225.75;5028915;28;20049;-49
2022/04/05 09:48:47;;;;;;;3.03;1.73;;;;;;;8.40;100.00;98228.00;5029053;28;20079;-49
2022/04/05 09:51:45;;;;;;;3.45;1.33;;;;;;;8.31;100.00;98230.94;5029618;28;20412;-49
2022/04/05 09:54:31;;;;;;;4.85;0.90;;;;;;;8.48;100.00;98240.72;5029094;28;20615;-49
2022/04/05 09:57:28;;;;;;;1.70;0.90;;;;;;;8.70;100.00;98238.06;5028614;28;20061;-50
2022/04/05 10:00:15;;;;;;;1.58;0.85;;;;;;;8.78;100.00;98229.94;5028769;28;20420;-49
2022/04/05 10:03:01;;;;;;;3.70;1.30;;;;;;;8.59;100.00;98233.31;5028833;28;20432;-50
2022/04/05 10:05:53;;;;;;;3.85;2.10;;;;;;;8.75;100.00;98246.56;5029492;28;20451;-49
2022/04/05 10:08:38;;;;;;;2.80;1.30;;;;;;;8.84;100.00;98240.97;5029440;28;20107;-49
2022/04/05 10:11:28;;;;;;;2.67;0.60;;;;;;;8.48;100.00;98245.09;5029209;28;20087;-50
2022/04/05 10:14:14;;;;;;;1.65;0.80;;;;;;;8.50;100.00;98245.91;5028335;28;20049;-50
2022/04/05 10:16:59;;;;;;;5.25;3.35;;;;;;;8.50;100.00;98244.13;5027973;28;20401;-49
2022/04/05 10:19:48;;;;;;;1.83;0.90;;;;;;;8.50;100.00;98241.53;5030471;28;20089;-49
2022/04/05 10:22:33;;;;;;;3.65;0.98;;;;;;;8.58;100.00;98244.69;5028053;28;20054;-50
2022/04/05 10:25:17;;;;;;;4.63;0.82;;;;;;;8.83;100.00;98236.63;5028033;28;20045;-50
2022/04/05 10:28:02;;;;;;;3.58;0.93;;;;;;;8.91;100.00;98235.47;5026523;28;20493;-49
2022/04/05 10:31:21;;;;;;;1.90;0.63;;;;;;;9.02;100.00;98236.69;5024882;28;20053;-49
2022/04/05 10:34:35;;;;;;;3.22;1.30;;;;;;;9.19;100.00;98235.94;5024717;28;20135;-50
2022/04/05 10:37:34;;;;;;;4.75;2.63;;;;;;;9.43;100.00;98230.56;5016980;28;20053;-49
2022/04/05 10:40:20;;;;;;;4.68;1.48;;;;;;;9.61;100.00;98248.00;5026223;28;20049;-49
2022/04/05 10:43:17;;;;;;;1.42;1.05;;;;;;;9.46;100.00;98257.41;5024390;28;20397;-49
2022/04/05 10:46:01;;;;;;;2.92;0.80;;;;;;;9.59;100.00;98247.25;5025551;28;20073;-49
2022/04/05 10:48:56;;;;;;;3.78;0.88;;;;;;;9.52;100.00;98257.13;5025272;28;20041;-50
2022/04/05 10:52:07;;;;;;;2.53;0.80;;;;;;;9.17;100.00;98257.84;5024855;28;20557;-50
2022/04/05 10:55:13;;;;;;;1.60;0.77;;;;;;;9.00;100.00;98261.16;5025829;28;20574;-49
2022/04/05 10:58:09;;;;;;;4.93;1.75;;;;;;;8.77;100.00;98270.00;5024452;28;20457;-50
2022/04/05 11:01:14;;;;;;;7.13;2.90;;;;;;;8.96;100.00;98267.44;5024093;28;20057;-49
2022/04/05 11:04:20;;;;;;;3.88;2.00;;;;;;;8.56;100.00;98264.75;5023825;28;20153;-49
2022/04/05 11:07:10;;;;;;;18.85;9.85;;;;;;;8.51;100.00;98274.53;5025865;28;20049;-50
2022/04/05 11:10:01;;;;;;;98.85;41.15;;;;;;;8.55;100.00;98263.06;5024194;28;20049;-50
2022/04/05 11:12:47;;;;;;;6.05;3.08;;;;;;;8.52;100.00;98273.63;5025260;28;20041;-50
2022/04/05 11:15:51;;;;;;;3.00;1.27;;;;;;;8.75;100.00;98264.84;5025734;28;20051;-49
2022/04/05 11:18:37;;;;;;;5.43;2.53;;;;;;;9.06;100.00;98269.59;5024714;28;20045;-50
2022/04/05 11:21:22;;;;;;;7.18;2.92;;;;;;;8.95;100.00;98269.22;5025476;28;20049;-50
2022/04/05 11:24:07;;;;;;;8.48;5.88;;;;;;;8.83;100.00;98273.19;5026244;28;20065;-49
2022/04/05 11:27:35;;;;;;;7.95;3.95;;;;;;;8.94;100.00;98279.72;5025384;28;20037;-49
2022/04/05 11:33:17;;;;;;;8.27;3.80;;;;;;;9.10;100.00;98281.63;5024954;28;20050;-50
2022/04/05 11:36:05;;;;;;;5.67;2.87;;;;;;;9.04;100.00;98291.50;5026531;28;20064;-50
2022/04/05 11:38:53;;;;;;;10.25;5.20;;;;;;;9.16;100.00;98287.47;5025105;28;20739;-49
2022/04/05 11:41:38;;;;;;;9.20;4.50;;;;;;;9.21;100.00;98301.22;5025759;28;20467;-50
2022/04/05 11:44:24;;;;;;;6.97;3.42;;;;;;;9.30;100.00;98304.28;5024547;28;20037;-53
2022/04/05 11:47:09;;;;;;;5.78;2.40;;;;;;;8.97;100.00;98305.69;5025256;28;20053;-50
2022/04/05 11:49:53;;;;;;;5.80;2.70;;;;;;;9.04;100.00;98307.16;5024672;28;20082;-50
2022/04/05 11:52:38;;;;;;;4.38;2.00;;;;;;;8.88;100.00;98314.78;5025964;28;20048;-50
2022/04/05 11:58:26;;;;;;;3.20;1.20;;;;;;;9.32;100.00;98305.03;5024162;28;20061;-49
2022/04/05 12:01:12;;;;;;;8.30;4.93;;;;;;;9.45;100.00;98296.66;5025021;28;20037;-50
2022/04/05 12:04:05;;;;;;;4.60;1.50;;;;;;;9.40;100.00;98288.19;5022862;28;20504;-49
2022/04/05 12:06:58;;;;;;;8.80;2.17;;;;;;;9.26;100.00;98297.50;5025183;28;20048;-50
2022/04/05 12:09:42;;;;;;;7.50;4.28;;;;;;;9.26;100.00;98294.00;5024108;28;20045;-49
2022/04/05 12:12:27;;;;;;;5.60;2.25;;;;;;;9.35;100.00;98306.66;5028203;28;20052;-49
2022/04/05 12:15:14;;;;;;;4.90;1.63;;;;;;;9.25;100.00;98284.47;5027339;28;20045;-49
2022/04/05 12:18:18;;;;;;;4.03;1.10;;;;;;;9.22;100.00;98293.28;5027592;28;20045;-50
2022/04/05 12:21:08;;;;;;;5.03;1.27;;;;;;;9.38;100.00;98306.53;5027104;28;20061;-50
2022/04/05 12:23:55;;;;;;;6.13;2.03;;;;;;;9.31;100.00;98303.34;5025794;28;20045;-50
2022/04/05 12:26:40;;;;;;;4.90;1.70;;;;;;;9.34;100.00;98297.13;5028040;28;20056;-50
2022/04/05 12:29:28;;;;;;;2.05;1.40;;;;;;;9.68;100.00;98304.31;5027813;28;20049;-49
2022/04/05 12:32:14;;;;;;;24.58;11.68;;;;;;;9.60;100.00;98301.22;5026748;28;20058;-49
2022/04/05 12:35:01;;;;;;;8.70;4.13;;;;;;;9.92;100.00;98297.13;5029516;28;20053;-52
2022/04/05 12:37:46;;;;;;;6.15;2.47;;;;;;;10.07;100.00;98285.09;5028873;28;20863;-50
2022/04/05 12:40:39;;;;;;;6.55;2.90;;;;;;;10.19;100.00;98294.13;5030364;28;20049;-50
2022/04/05 12:43:24;;;;;;;28.55;14.10;;;;;;;10.37;100.00;98300.31;5030935;28;20053;-50
2022/04/05 12:46:13;;;;;;;12.00;4.97;;;;;;;10.32;100.00;98295.28;5029155;28;20140;-51
2022/04/05 12:49:23;;;;;;;7.63;2.88;;;;;;;10.01;100.00;98293.25;5032058;28;20037;-50
2022/04/05 12:52:13;;;;;;;8.63;3.75;;;;;;;9.96;100.00;98287.38;5028323;28;20127;-50
2022/04/05 12:55:00;;;;;;;13.95;6.90;;;;;;;10.18;100.00;98297.69;5030474;28;20372;-51
2022/04/05 12:57:49;;;;;;;16.33;5.72;;;;;;;10.39;100.00;98295.84;5030869;28;20528;-51
2022/04/05 13:00:44;;;;;;;7.13;3.17;;;;;;;10.48;100.00;98295.41;5029286;28;20458;-50
2022/04/05 13:03:34;;;;;;;15.20;7.45;;;;;;;10.42;98.25;98296.53;5028660;28;20044;-50
2022/04/05 13:06:29;;;;;;;23.88;11.57;;;;;;;10.07;97.68;98293.81;5028487;28;20053;-51
2022/04/05 13:09:15;;;;;;;18.40;7.15;;;;;;;10.19;99.08;98297.59;5028981;28;20041;-50